createdAt,value
2022-09-28T00:01:23.994Z,12.67
2022-09-28T00:03:54.713Z,12.29
2022-09-28T00:06:26.574Z,12.63
2022-09-28T00:08:55.172Z,12.58
2022-09-28T00:11:24.199Z,12.29
2022-09-28T00:13:53.578Z,12.47
2022-09-28T00:16:25.809Z,12.61
2022-09-28T00:18:54.090Z,12.76
2022-09-28T00:21:24.457Z,12.63
2022-09-28T00:24:12.534Z,12.50
2022-09-28T00:26:43.429Z,12.60
2022-09-28T00:29:28.688Z,12.64
2022-09-28T00:32:03.144Z,12.39
2022-09-28T00:34:34.742Z,12.58
2022-09-28T00:37:04.690Z,12.56
2022-09-28T00:39:32.360Z,12.56
2022-09-28T00:42:00.138Z,12.58
2022-09-28T00:44:54.782Z,12.43
2022-09-28T00:47:38.290Z,12.65
2022-09-28T00:50:30.299Z,12.74
2022-09-28T00:53:00.409Z,12.69
2022-09-28T00:55:42.371Z,12.88
2022-09-28T00:58:12.733Z,12.74
2022-09-28T01:00:41.587Z,12.79
2022-09-28T01:03:10.358Z,12.76
2022-09-28T01:05:40.031Z,12.88
2022-09-28T01:08:09.128Z,12.80
2022-09-28T01:10:36.765Z,12.76
2022-09-28T01:13:04.538Z,13.04
2022-09-28T01:15:38.112Z,12.82
2022-09-28T01:18:05.879Z,12.85
2022-09-28T01:20:45.526Z,12.92
2022-09-28T01:23:39.393Z,12.94
2022-09-28T01:26:25.600Z,12.88
2022-09-28T01:28:59.628Z,12.96
2022-09-28T01:31:31.336Z,12.86
2022-09-28T01:34:05.360Z,12.88
2022-09-28T01:36:41.499Z,12.89
2022-09-28T01:39:15.563Z,12.56
2022-09-28T01:41:45.961Z,12.38
2022-09-28T01:44:16.568Z,12.70
2022-09-28T01:46:48.189Z,12.78
2022-09-28T01:49:31.429Z,12.59
2022-09-28T01:52:11.689Z,12.59
2022-09-28T01:54:54.521Z,12.56
2022-09-28T01:57:45.560Z,12.55
2022-09-28T02:00:15.822Z,12.56
2022-09-28T02:02:59.573Z,12.55
2022-09-28T02:05:32.400Z,12.77
2022-09-28T02:08:20.765Z,12.63
2022-09-28T02:11:00.409Z,12.41
2022-09-28T02:13:32.268Z,12.63
2022-09-28T02:16:12.190Z,12.45
2022-09-28T02:18:40.323Z,12.50
2022-09-28T02:21:18.049Z,12.68
2022-09-28T02:23:54.343Z,12.62
2022-09-28T02:26:27.678Z,12.62
2022-09-28T02:28:55.718Z,12.45
2022-09-28T02:31:23.929Z,12.52
2022-09-28T02:33:52.580Z,12.50
2022-09-28T02:36:20.399Z,12.85
2022-09-28T02:38:48.398Z,12.83
2022-09-28T02:41:40.186Z,12.63
2022-09-28T02:44:32.869Z,12.84
2022-09-28T02:47:10.098Z,12.82
2022-09-28T02:49:56.101Z,12.84
2022-09-28T02:52:42.108Z,12.88
2022-09-28T02:55:42.441Z,12.84
2022-09-28T02:58:31.200Z,13.01
2022-09-28T03:01:17.812Z,13.00
2022-09-28T03:04:13.167Z,12.80
2022-09-28T03:06:48.508Z,13.01
2022-09-28T03:09:21.789Z,12.81
2022-09-28T03:11:53.238Z,12.84
2022-09-28T03:14:21.129Z,12.84
2022-09-28T03:16:50.123Z,12.98
2022-09-28T03:19:22.399Z,12.82
2022-09-28T03:21:51.780Z,12.87
2022-09-28T03:24:19.381Z,13.27
2022-09-28T03:26:47.060Z,13.35
2022-09-28T03:29:15.358Z,13.31
2022-09-28T03:31:44.392Z,13.10
2022-09-28T03:34:12.739Z,13.11
2022-09-28T03:36:40.669Z,13.09
2022-09-28T03:39:08.268Z,12.98
2022-09-28T03:41:38.429Z,12.88
2022-09-28T03:44:06.437Z,13.04
2022-09-28T03:46:34.252Z,13.16
2022-09-28T03:49:02.601Z,12.96
2022-09-28T03:51:30.531Z,12.99
2022-09-28T03:53:58.101Z,12.85
2022-09-28T03:56:26.678Z,12.60
2022-09-28T03:58:54.710Z,12.82
2022-09-28T04:01:22.628Z,12.69
2022-09-28T04:03:55.218Z,12.73
2022-09-28T04:06:24.545Z,12.72
2022-09-28T04:08:52.699Z,12.66
2022-09-28T04:11:20.500Z,12.20
2022-09-28T04:13:49.999Z,12.58
2022-09-28T04:16:19.112Z,12.52
2022-09-28T04:18:49.199Z,12.41
2022-09-28T04:21:20.245Z,12.58
2022-09-28T04:23:49.182Z,12.51
2022-09-28T04:26:19.239Z,12.47
2022-09-28T04:29:07.417Z,12.52
2022-09-28T04:31:54.114Z,12.48
2022-09-28T04:34:23.550Z,12.47
2022-09-28T04:36:51.349Z,12.20
2022-09-28T04:39:19.985Z,12.17
2022-09-28T04:41:49.012Z,12.45
2022-09-28T04:44:16.860Z,12.23
2022-09-28T04:46:46.117Z,12.20
2022-09-28T04:49:16.055Z,12.57
2022-09-28T04:51:43.882Z,12.24
2022-09-28T04:54:12.519Z,12.26
2022-09-28T04:56:41.355Z,11.80
2022-09-28T04:59:10.076Z,11.86
2022-09-28T05:01:38.144Z,11.62
2022-09-28T05:04:07.234Z,11.46
2022-09-28T05:06:34.878Z,11.73
2022-09-28T05:09:02.664Z,11.66
2022-09-28T05:11:30.815Z,11.65
2022-09-28T05:13:58.672Z,11.56
2022-09-28T05:16:31.644Z,11.41
2022-09-28T05:19:14.437Z,11.51
2022-09-28T05:21:47.013Z,11.79
2022-09-28T05:24:15.039Z,11.93
2022-09-28T05:26:44.209Z,11.82
2022-09-28T05:29:11.981Z,12.51
2022-09-28T05:31:42.261Z,14.46
2022-09-28T05:34:10.288Z,16.54
2022-09-28T05:36:40.169Z,17.15
2022-09-28T05:39:09.790Z,17.63
2022-09-28T05:41:37.419Z,17.67
2022-09-28T05:44:05.746Z,18.07
2022-09-28T05:46:35.210Z,17.76
2022-09-28T05:49:03.658Z,17.57
2022-09-28T05:51:31.338Z,17.48
2022-09-28T05:54:04.607Z,17.58
2022-09-28T05:56:34.069Z,17.52
2022-09-28T05:59:05.409Z,17.24
2022-09-28T06:01:33.136Z,17.31
2022-09-28T06:04:01.608Z,16.98
2022-09-28T06:06:29.278Z,17.12
2022-09-28T06:08:57.190Z,17.63
2022-09-28T06:11:28.005Z,17.17
2022-09-28T06:13:56.180Z,17.55
2022-09-28T06:16:24.478Z,17.53
2022-09-28T06:18:52.624Z,17.81
2022-09-28T06:21:20.808Z,17.75
2022-09-28T06:23:49.495Z,17.52
2022-09-28T06:26:18.020Z,17.44
2022-09-28T06:28:46.127Z,18.08
2022-09-28T06:31:13.867Z,17.53
2022-09-28T06:33:42.642Z,17.18
2022-09-28T06:36:10.480Z,17.18
2022-09-28T06:38:38.550Z,17.11
2022-09-28T06:41:06.802Z,16.96
2022-09-28T06:43:35.289Z,17.12
2022-09-28T06:46:09.852Z,17.48
2022-09-28T06:48:38.286Z,17.78
2022-09-28T06:51:07.204Z,17.57
2022-09-28T06:53:36.578Z,17.46
2022-09-28T06:56:09.324Z,17.80
2022-09-28T06:58:37.326Z,17.59
2022-09-28T07:01:05.923Z,18.13
2022-09-28T07:03:35.042Z,18.45
2022-09-28T07:06:04.481Z,18.81
2022-09-28T07:08:33.081Z,18.53
2022-09-28T07:11:06.142Z,19.28
2022-09-28T07:13:49.649Z,19.29
2022-09-28T07:16:24.075Z,19.35
2022-09-28T07:18:54.739Z,19.20
2022-09-28T07:21:29.583Z,19.22
2022-09-28T07:24:00.201Z,19.79
2022-09-28T07:26:33.392Z,19.61
2022-09-28T07:29:01.526Z,20.43
2022-09-28T07:31:29.811Z,19.94
2022-09-28T07:33:58.911Z,19.58
2022-09-28T07:36:27.777Z,20.31
2022-09-28T07:38:55.741Z,19.60
2022-09-28T07:41:32.726Z,19.70
2022-09-28T07:44:05.538Z,19.29
2022-09-28T07:46:39.910Z,19.57
2022-09-28T07:49:11.410Z,19.47
2022-09-28T07:51:44.432Z,19.66
2022-09-28T07:54:12.680Z,19.32
2022-09-28T07:56:41.033Z,19.28
2022-09-28T07:59:09.244Z,19.70
2022-09-28T08:01:41.334Z,19.08
2022-09-28T08:04:09.619Z,18.67
2022-09-28T08:06:37.608Z,18.81
2022-09-28T08:09:06.104Z,19.14
2022-09-28T08:11:35.249Z,19.74
2022-09-28T08:14:03.402Z,19.89
2022-09-28T08:16:34.772Z,19.74
2022-09-28T08:19:04.489Z,20.23
2022-09-28T08:21:47.721Z,20.89
2022-09-28T08:24:17.860Z,20.62
2022-09-28T08:26:46.059Z,19.50
2022-09-28T08:29:16.287Z,19.02
2022-09-28T08:31:48.722Z,19.81
2022-09-28T08:34:18.991Z,20.33
2022-09-28T08:36:48.310Z,20.29
2022-09-28T08:39:18.660Z,20.50
2022-09-28T08:42:03.720Z,19.69
2022-09-28T08:44:39.853Z,19.75
2022-09-28T08:47:47.421Z,19.89
2022-09-28T08:50:19.510Z,19.91
2022-09-28T08:52:54.672Z,19.45
2022-09-28T08:55:32.801Z,18.74
2022-09-28T08:58:17.263Z,19.14
2022-09-28T09:00:50.192Z,19.62
2022-09-28T09:03:25.921Z,20.12
2022-09-28T09:06:00.528Z,20.14
2022-09-28T09:08:57.452Z,20.59
2022-09-28T09:11:34.778Z,20.29
2022-09-28T09:14:25.692Z,20.25
2022-09-28T09:17:18.518Z,19.81
2022-09-28T09:19:53.091Z,19.38
2022-09-28T09:22:53.302Z,19.16
2022-09-28T09:25:28.685Z,18.84
2022-09-28T09:28:21.530Z,18.74
2022-09-28T09:30:57.888Z,18.87
2022-09-28T09:33:54.752Z,19.02
2022-09-28T09:36:38.732Z,18.89
2022-09-28T09:39:16.341Z,19.09
2022-09-28T09:42:08.603Z,18.11
2022-09-28T09:45:01.739Z,18.51
2022-09-28T09:47:38.699Z,19.12
2022-09-28T09:50:19.801Z,19.17
2022-09-28T09:52:55.940Z,18.44
2022-09-28T09:55:45.789Z,19.12
2022-09-28T09:58:37.512Z,19.63
2022-09-28T10:01:13.228Z,19.39
2022-09-28T10:03:47.403Z,18.95
2022-09-28T10:06:23.300Z,17.96
2022-09-28T10:09:01.657Z,17.87
2022-09-28T10:11:35.840Z,17.85
2022-09-28T10:14:08.369Z,17.21
2022-09-28T10:16:36.503Z,16.99
2022-09-28T10:19:08.321Z,18.00
2022-09-28T10:21:42.491Z,18.51
2022-09-28T10:24:30.923Z,19.31
2022-09-28T10:27:07.909Z,18.66
2022-09-28T10:30:04.390Z,19.25
2022-09-28T10:32:47.437Z,19.44
2022-09-28T10:35:18.820Z,18.82
2022-09-28T10:37:54.444Z,18.88
2022-09-28T10:40:32.465Z,18.44
2022-09-28T10:43:24.112Z,17.99
2022-09-28T10:46:10.246Z,19.12
2022-09-28T10:48:59.178Z,19.38
2022-09-28T10:51:50.624Z,18.55
2022-09-28T10:54:18.691Z,17.43
2022-09-28T10:56:48.083Z,18.19
2022-09-28T10:59:29.888Z,18.29
2022-09-28T11:02:04.452Z,18.70
2022-09-28T11:04:43.603Z,18.22
2022-09-28T11:07:24.885Z,19.22
2022-09-28T11:09:54.802Z,20.42
2022-09-28T11:12:26.400Z,20.46
2022-09-28T11:15:17.883Z,21.00
2022-09-28T11:17:46.459Z,20.81
2022-09-28T11:20:28.174Z,20.66
2022-09-28T11:23:15.993Z,20.63
2022-09-28T11:25:44.329Z,20.82
2022-09-28T11:28:23.562Z,20.04
2022-09-28T11:30:53.230Z,19.70
2022-09-28T11:33:31.270Z,19.37
2022-09-28T11:36:18.629Z,18.81
2022-09-28T11:39:09.420Z,19.56
2022-09-28T11:42:05.710Z,20.02
2022-09-28T11:44:59.340Z,19.86
2022-09-28T11:47:48.393Z,19.24
2022-09-28T11:50:39.631Z,19.29
2022-09-28T11:53:18.903Z,19.89
2022-09-28T11:55:50.282Z,18.82
2022-09-28T11:58:24.113Z,18.51
2022-09-28T12:00:58.971Z,18.69
2022-09-28T12:03:34.488Z,18.44
2022-09-28T12:06:05.550Z,18.71
2022-09-28T12:08:44.962Z,19.67
2022-09-28T12:11:20.982Z,20.20
2022-09-28T12:13:53.839Z,19.74
2022-09-28T12:16:53.694Z,19.82
2022-09-28T12:19:32.591Z,19.19
2022-09-28T12:22:04.992Z,19.39
2022-09-28T12:24:37.445Z,19.04
2022-09-28T12:27:12.298Z,19.20
2022-09-28T12:29:47.648Z,19.39
2022-09-28T12:32:46.749Z,19.56
2022-09-28T12:35:29.484Z,19.35
2022-09-28T12:38:09.026Z,19.70
2022-09-28T12:40:57.851Z,19.41
2022-09-28T12:43:54.742Z,19.08
2022-09-28T12:46:57.640Z,18.77
2022-09-28T12:50:36.275Z,18.90
2022-09-28T12:52:54.310Z,17.79
2022-09-28T12:55:57.899Z,17.89
2022-09-28T12:58:36.954Z,17.97
2022-09-28T13:01:33.098Z,18.42
2022-09-28T13:04:19.947Z,18.07
2022-09-28T13:06:55.751Z,17.57
2022-09-28T13:09:26.330Z,17.44
2022-09-28T13:12:18.862Z,17.23
2022-09-28T13:14:59.588Z,17.97
2022-09-28T13:17:44.000Z,17.98
2022-09-28T13:20:22.023Z,18.33
2022-09-28T13:22:57.692Z,18.70
2022-09-28T13:25:27.385Z,18.05
2022-09-28T13:28:05.603Z,18.75
2022-09-28T13:30:36.223Z,18.34
2022-09-28T13:33:06.312Z,18.64
2022-09-28T13:35:35.228Z,17.89
2022-09-28T13:38:18.128Z,18.52
2022-09-28T13:41:20.321Z,18.55
2022-09-28T13:44:09.909Z,18.88
2022-09-28T13:46:52.803Z,18.00
2022-09-28T13:49:29.773Z,17.84
2022-09-28T13:52:27.942Z,17.80
2022-09-28T13:55:25.162Z,18.51
2022-09-28T13:58:20.760Z,18.22
2022-09-28T14:01:22.199Z,18.36
2022-09-28T14:03:56.275Z,17.90
2022-09-28T14:06:29.456Z,18.03
2022-09-28T14:09:19.070Z,17.75
2022-09-28T14:11:47.490Z,17.98
2022-09-28T14:14:16.241Z,17.87
2022-09-28T14:16:44.542Z,17.63
2022-09-28T14:19:18.783Z,17.62
2022-09-28T14:22:07.650Z,17.75
2022-09-28T14:24:51.105Z,17.76
2022-09-28T14:27:37.588Z,18.30
2022-09-28T14:30:20.056Z,18.29
2022-09-28T14:32:57.404Z,18.41
2022-09-28T14:35:40.352Z,18.43
2022-09-28T14:38:37.074Z,18.29
2022-09-28T14:41:11.735Z,18.29
2022-09-28T14:43:45.971Z,17.86
2022-09-28T14:46:20.043Z,17.85
2022-09-28T14:48:52.823Z,17.91
2022-09-28T14:51:26.712Z,17.55
2022-09-28T14:54:00.597Z,17.74
2022-09-28T14:56:32.750Z,17.65
2022-09-28T14:59:01.120Z,17.88
2022-09-28T15:01:30.438Z,17.35
2022-09-28T15:04:04.720Z,17.92
2022-09-28T15:06:46.823Z,17.06
2022-09-28T15:09:26.752Z,17.62
2022-09-28T15:12:16.009Z,17.93
2022-09-28T15:14:53.211Z,17.18
2022-09-28T15:17:27.820Z,17.23
2022-09-28T15:20:17.379Z,17.36
2022-09-28T15:22:47.273Z,17.58
2022-09-28T15:25:20.151Z,17.71
2022-09-28T15:27:57.361Z,17.72
2022-09-28T15:30:28.221Z,17.59
2022-09-28T15:33:17.522Z,17.81
2022-09-28T15:36:04.730Z,18.13
2022-09-28T15:38:34.172Z,17.95
2022-09-28T15:41:06.262Z,17.89
2022-09-28T15:43:34.498Z,18.00
2022-09-28T15:46:27.487Z,17.96
2022-09-28T15:48:59.770Z,17.66
2022-09-28T15:51:28.548Z,17.79
2022-09-28T15:54:12.284Z,17.87
2022-09-28T15:57:02.860Z,17.89
2022-09-28T15:59:39.570Z,17.59
2022-09-28T16:02:13.932Z,17.77
2022-09-28T16:05:00.778Z,17.62
2022-09-28T16:07:38.816Z,17.82
2022-09-28T16:10:12.878Z,17.48
2022-09-28T16:12:40.433Z,17.82
2022-09-28T16:15:32.596Z,17.79
2022-09-28T16:18:19.857Z,17.56
2022-09-28T16:20:50.370Z,17.20
2022-09-28T16:23:31.209Z,17.20
2022-09-28T16:26:02.176Z,17.40
2022-09-28T16:28:34.621Z,17.39
2022-09-28T16:31:14.423Z,17.19
2022-09-28T16:34:11.584Z,16.97
2022-09-28T16:36:43.763Z,17.04
2022-09-28T16:39:19.180Z,17.27
2022-09-28T16:41:54.133Z,17.13
2022-09-28T16:44:24.983Z,17.15
2022-09-28T16:46:55.608Z,16.87
2022-09-28T16:49:24.144Z,16.95
2022-09-28T16:51:51.948Z,17.07
2022-09-28T16:54:42.690Z,17.16
2022-09-28T16:57:12.532Z,16.81
2022-09-28T16:59:40.562Z,16.96
2022-09-28T17:02:45.281Z,17.03
2022-09-28T17:05:08.705Z,16.87
2022-09-28T17:07:36.821Z,16.94
2022-09-28T17:10:15.020Z,17.19
2022-09-28T17:12:43.141Z,16.89
2022-09-28T17:15:11.179Z,16.94
2022-09-28T17:17:41.036Z,16.94
2022-09-28T17:20:21.138Z,16.93
2022-09-28T17:22:50.523Z,16.79
2022-09-28T17:25:19.118Z,16.70
2022-09-28T17:27:48.211Z,16.73
2022-09-28T17:30:16.355Z,16.67
2022-09-28T17:32:47.488Z,16.55
2022-09-28T17:35:25.401Z,16.58
2022-09-28T17:37:53.894Z,16.57
2022-09-28T17:40:25.955Z,16.36
2022-09-28T17:42:56.518Z,16.58
2022-09-28T17:45:28.759Z,16.80
2022-09-28T17:47:57.556Z,16.24
2022-09-28T17:50:28.140Z,16.48
2022-09-28T17:52:58.027Z,16.20
2022-09-28T17:55:33.829Z,15.88
2022-09-28T17:58:11.350Z,15.82
2022-09-28T18:00:39.127Z,15.63
2022-09-28T18:03:13.731Z,15.56
2022-09-28T18:05:42.955Z,15.71
2022-09-28T18:08:17.269Z,15.67
2022-09-28T18:10:46.990Z,15.49
2022-09-28T18:13:15.333Z,15.48
2022-09-28T18:15:43.479Z,15.57
2022-09-28T18:18:13.052Z,15.42
2022-09-28T18:20:42.269Z,15.76
2022-09-28T18:23:10.399Z,15.39
2022-09-28T18:25:43.249Z,15.37
2022-09-28T18:28:12.449Z,15.24
2022-09-28T18:30:42.701Z,15.28
2022-09-28T18:33:12.287Z,15.26
2022-09-28T18:35:40.981Z,15.24
2022-09-28T18:38:09.612Z,15.28
2022-09-28T18:40:37.577Z,15.22
2022-09-28T18:43:06.149Z,15.42
2022-09-28T18:45:34.919Z,15.54
2022-09-28T18:48:03.173Z,15.33
2022-09-28T18:50:31.372Z,15.34
2022-09-28T18:53:11.842Z,15.44
2022-09-28T18:55:44.667Z,15.13
2022-09-28T18:58:12.787Z,15.16
2022-09-28T19:00:42.132Z,15.11
2022-09-28T19:03:11.328Z,15.23
2022-09-28T19:05:42.829Z,15.13
2022-09-28T19:08:11.868Z,15.32
2022-09-28T19:10:40.141Z,15.31
2022-09-28T19:13:08.135Z,15.52
2022-09-28T19:15:36.402Z,15.70
2022-09-28T19:18:04.455Z,15.25
2022-09-28T19:20:33.588Z,15.41
2022-09-28T19:23:02.240Z,15.33
2022-09-28T19:25:30.126Z,15.35
2022-09-28T19:27:57.901Z,15.02
2022-09-28T19:30:25.902Z,15.56
2022-09-28T19:32:53.609Z,15.50
2022-09-28T19:35:21.495Z,15.38
2022-09-28T19:37:50.041Z,15.63
2022-09-28T19:40:17.734Z,15.88
2022-09-28T19:42:45.772Z,15.41
2022-09-28T19:45:13.820Z,15.09
2022-09-28T19:47:41.663Z,15.30
2022-09-28T19:50:10.493Z,15.13
2022-09-28T19:52:38.400Z,15.13
2022-09-28T19:55:06.522Z,15.27
2022-09-28T19:57:34.962Z,15.14
2022-09-28T20:00:04.120Z,15.30
2022-09-28T20:02:34.088Z,15.06
2022-09-28T20:05:02.296Z,15.24
2022-09-28T20:07:33.061Z,15.23
2022-09-28T20:10:00.859Z,15.27
2022-09-28T20:12:28.970Z,15.05
2022-09-28T20:14:56.600Z,15.05
2022-09-28T20:17:24.372Z,15.17
2022-09-28T20:19:52.757Z,14.87
2022-09-28T20:22:21.395Z,15.15
2022-09-28T20:24:49.163Z,15.22
2022-09-28T20:27:17.119Z,15.36
2022-09-28T20:29:44.829Z,15.11
2022-09-28T20:32:12.507Z,14.81
2022-09-28T20:34:40.460Z,14.67
2022-09-28T20:37:08.439Z,14.91
2022-09-28T20:39:36.177Z,15.40
2022-09-28T20:42:04.146Z,15.03
2022-09-28T20:44:31.949Z,15.11
2022-09-28T20:47:00.006Z,15.00
2022-09-28T20:49:28.262Z,15.02
2022-09-28T20:51:56.125Z,14.91
2022-09-28T20:54:23.863Z,14.85
2022-09-28T20:56:52.165Z,14.91
2022-09-28T20:59:23.010Z,15.15
2022-09-28T21:01:51.276Z,15.36
2022-09-28T21:04:19.784Z,15.05
2022-09-28T21:06:47.630Z,14.73
2022-09-28T21:09:15.223Z,14.81
2022-09-28T21:11:43.181Z,14.94
2022-09-28T21:14:10.953Z,15.05
2022-09-28T21:16:39.442Z,15.31
2022-09-28T21:19:07.613Z,14.86
2022-09-28T21:21:36.341Z,15.33
2022-09-28T21:24:04.186Z,15.54
2022-09-28T21:26:32.826Z,15.06
2022-09-28T21:29:01.314Z,15.10
2022-09-28T21:31:32.753Z,14.93
2022-09-28T21:34:01.017Z,15.23
2022-09-28T21:36:28.842Z,14.91
2022-09-28T21:38:57.071Z,14.82
2022-09-28T21:41:25.941Z,14.94
2022-09-28T21:43:53.792Z,14.83
2022-09-28T21:46:21.860Z,14.63
2022-09-28T21:48:53.750Z,15.06
2022-09-28T21:51:21.871Z,14.74
2022-09-28T21:53:49.568Z,14.48
2022-09-28T21:56:17.883Z,14.49
2022-09-28T21:58:45.583Z,14.66
2022-09-28T22:01:16.754Z,14.87
2022-09-28T22:03:47.696Z,14.50
2022-09-28T22:06:17.200Z,14.79
2022-09-28T22:08:45.972Z,14.74
2022-09-28T22:11:22.612Z,14.46
2022-09-28T22:13:52.930Z,14.45
2022-09-28T22:16:23.106Z,14.39
2022-09-28T22:18:51.201Z,14.55
2022-09-28T22:21:20.942Z,14.56
2022-09-28T22:23:48.786Z,14.75
2022-09-28T22:26:25.487Z,14.62
2022-09-28T22:28:54.107Z,14.43
2022-09-28T22:31:24.823Z,14.18
2022-09-28T22:33:52.744Z,14.42
2022-09-28T22:36:21.138Z,14.40
2022-09-28T22:38:49.216Z,14.52
2022-09-28T22:41:20.606Z,14.68
2022-09-28T22:43:49.822Z,15.00
2022-09-28T22:46:20.279Z,15.17
2022-09-28T22:48:53.806Z,14.74
2022-09-28T22:51:22.797Z,15.19
2022-09-28T22:53:50.737Z,15.08
2022-09-28T22:56:19.354Z,14.51
2022-09-28T22:58:47.947Z,14.48
2022-09-28T23:01:18.833Z,14.21
2022-09-28T23:03:47.819Z,14.33
2022-09-28T23:06:17.800Z,14.21
2022-09-28T23:08:46.137Z,13.95
2022-09-28T23:11:14.708Z,14.16
2022-09-28T23:13:43.079Z,14.37
2022-09-28T23:16:12.426Z,14.12
2022-09-28T23:18:43.978Z,14.20
2022-09-28T23:21:18.264Z,14.36
2022-09-28T23:23:46.710Z,14.14
2022-09-28T23:26:17.058Z,14.07
2022-09-28T23:28:45.126Z,14.11
2022-09-28T23:31:18.514Z,14.09
2022-09-28T23:33:46.800Z,14.13
2022-09-28T23:36:15.344Z,14.36
2022-09-28T23:38:43.531Z,14.28
2022-09-28T23:41:11.707Z,14.64
2022-09-28T23:43:39.437Z,14.66
2022-09-28T23:46:07.430Z,14.75
2022-09-28T23:48:35.487Z,14.67
2022-09-28T23:51:03.416Z,14.34
2022-09-28T23:53:32.459Z,14.35
2022-09-28T23:56:00.902Z,14.57
2022-09-28T23:58:28.738Z,14.38
